createdAt,value
2023-03-18T00:00:50.187Z,0.00
2023-03-18T00:01:50.171Z,0.00
2023-03-18T00:02:50.240Z,0.00
2023-03-18T00:03:50.202Z,0.00
2023-03-18T00:04:50.153Z,0.00
2023-03-18T00:05:50.147Z,0.00
2023-03-18T00:06:50.128Z,0.00
2023-03-18T00:07:50.098Z,0.00
2023-03-18T00:08:50.086Z,0.00
2023-03-18T00:09:50.090Z,0.00
2023-03-18T00:10:50.057Z,0.00
2023-03-18T00:11:50.094Z,0.00
2023-03-18T00:12:50.048Z,0.00
2023-03-18T00:13:50.068Z,0.00
2023-03-18T00:14:50.034Z,0.00
2023-03-18T00:15:50.095Z,0.00
2023-03-18T00:16:50.017Z,0.00
2023-03-18T00:17:50.019Z,0.00
2023-03-18T00:18:49.981Z,0.00
2023-03-18T00:19:49.957Z,0.00
2023-03-18T00:20:49.966Z,0.00
2023-03-18T00:21:49.964Z,0.00
2023-03-18T00:22:49.942Z,0.00
2023-03-18T00:23:49.917Z,0.00
2023-03-18T00:24:49.942Z,0.00
2023-03-18T00:25:49.895Z,0.00
2023-03-18T00:26:49.916Z,0.00
2023-03-18T00:27:49.873Z,0.00
2023-03-18T00:28:49.886Z,0.00
2023-03-18T00:29:49.889Z,0.00
2023-03-18T00:30:49.833Z,0.00
2023-03-18T00:31:49.836Z,0.00
2023-03-18T00:32:49.889Z,0.00
2023-03-18T00:33:49.831Z,0.00
2023-03-18T00:34:49.794Z,0.00
2023-03-18T00:35:49.843Z,0.00
2023-03-18T00:36:49.786Z,0.00
2023-03-18T00:37:49.785Z,0.00
2023-03-18T00:38:49.764Z,0.00
2023-03-18T00:39:49.739Z,0.00
2023-03-18T00:40:49.744Z,0.00
2023-03-18T00:41:49.718Z,0.00
2023-03-18T00:42:49.712Z,0.00
2023-03-18T00:43:49.733Z,0.00
2023-03-18T00:44:49.713Z,0.00
2023-03-18T00:45:49.718Z,0.00
2023-03-18T00:46:49.780Z,0.00
2023-03-18T00:47:49.674Z,0.00
2023-03-18T00:48:49.665Z,0.00
2023-03-18T00:49:49.629Z,0.00
2023-03-18T00:50:49.649Z,0.00
2023-03-18T00:51:49.651Z,0.00
2023-03-18T00:52:49.607Z,0.00
2023-03-18T00:53:49.624Z,0.00
2023-03-18T00:54:49.576Z,0.00
2023-03-18T00:55:49.581Z,0.00
2023-03-18T00:56:49.769Z,0.00
2023-03-18T00:57:49.567Z,0.00
2023-03-18T00:58:49.552Z,0.00
2023-03-18T00:59:49.534Z,0.00
2023-03-18T01:00:49.569Z,0.00
2023-03-18T01:01:49.546Z,0.00
2023-03-18T01:02:49.516Z,0.00
2023-03-18T01:03:49.503Z,0.00
2023-03-18T01:04:49.478Z,0.00
2023-03-18T01:05:49.460Z,0.00
2023-03-18T01:06:49.448Z,0.00
2023-03-18T01:07:50.358Z,0.00
2023-03-18T01:08:49.418Z,0.00
2023-03-18T01:09:49.426Z,0.00
2023-03-18T01:10:49.408Z,0.00
2023-03-18T01:11:49.395Z,0.00
2023-03-18T01:12:49.390Z,0.00
2023-03-18T01:13:49.376Z,0.00
2023-03-18T01:14:49.392Z,0.00
2023-03-18T01:15:49.355Z,0.00
2023-03-18T01:16:49.446Z,0.00
2023-03-18T01:17:49.344Z,0.00
2023-03-18T01:18:49.315Z,0.00
2023-03-18T01:19:49.300Z,0.00
2023-03-18T01:20:49.284Z,0.00
2023-03-18T01:21:49.289Z,0.00
2023-03-18T01:22:49.292Z,0.00
2023-03-18T01:23:49.258Z,0.00
2023-03-18T01:24:49.267Z,0.00
2023-03-18T01:25:49.243Z,0.00
2023-03-18T01:26:49.218Z,0.00
2023-03-18T01:27:49.221Z,0.00
2023-03-18T01:28:49.212Z,0.00
2023-03-18T01:29:49.226Z,0.00
2023-03-18T01:30:49.187Z,0.00
2023-03-18T01:31:49.208Z,0.00
2023-03-18T01:32:49.243Z,0.00
2023-03-18T01:33:49.160Z,0.00
2023-03-18T01:34:49.134Z,0.00
2023-03-18T01:35:49.141Z,0.00
2023-03-18T01:36:49.116Z,0.00
2023-03-18T01:37:49.118Z,0.00
2023-03-18T01:38:49.139Z,0.00
2023-03-18T01:39:49.078Z,0.00
2023-03-18T01:40:49.128Z,0.00
2023-03-18T01:41:49.067Z,0.00
2023-03-18T01:42:49.049Z,0.00
2023-03-18T01:43:49.034Z,0.00
2023-03-18T01:44:49.038Z,0.00
2023-03-18T01:45:49.096Z,0.00
2023-03-18T01:46:49.000Z,0.00
2023-03-18T01:47:49.005Z,0.00
2023-03-18T01:48:48.979Z,0.00
2023-03-18T01:49:48.979Z,0.00
2023-03-18T01:50:48.957Z,0.00
2023-03-18T01:51:48.949Z,0.00
2023-03-18T01:52:48.934Z,0.00
2023-03-18T01:53:48.909Z,0.00
2023-03-18T01:54:48.924Z,0.00
2023-03-18T01:55:48.913Z,0.00
2023-03-18T01:56:48.911Z,0.00
2023-03-18T01:57:48.887Z,0.00
2023-03-18T01:58:48.890Z,0.00
2023-03-18T01:59:48.863Z,0.00
2023-03-18T02:00:48.868Z,0.00
2023-03-18T02:01:48.847Z,0.00
2023-03-18T02:02:48.828Z,0.00
2023-03-18T02:03:48.812Z,0.00
2023-03-18T02:04:48.814Z,0.00
2023-03-18T02:05:48.814Z,0.00
2023-03-18T02:06:48.782Z,0.00
2023-03-18T02:07:48.800Z,0.00
2023-03-18T02:08:48.766Z,0.00
2023-03-18T02:09:48.751Z,0.00
2023-03-18T02:10:48.747Z,0.00
2023-03-18T02:11:48.735Z,0.00
2023-03-18T02:12:48.721Z,0.00
2023-03-18T02:13:48.707Z,0.00
2023-03-18T02:14:48.693Z,0.00
2023-03-18T02:15:48.677Z,0.00
2023-03-18T02:16:48.769Z,0.00
2023-03-18T02:17:48.678Z,0.00
2023-03-18T02:18:48.641Z,0.00
2023-03-18T02:19:48.647Z,0.00
2023-03-18T02:20:48.646Z,0.00
2023-03-18T02:21:48.658Z,0.00
2023-03-18T02:22:48.600Z,0.00
2023-03-18T02:23:48.598Z,0.00
2023-03-18T02:24:48.569Z,0.00
2023-03-18T02:25:48.589Z,0.00
2023-03-18T02:26:48.554Z,0.00
2023-03-18T02:27:48.553Z,0.00
2023-03-18T02:28:48.543Z,0.00
2023-03-18T02:29:48.538Z,0.00
2023-03-18T02:30:48.524Z,0.00
2023-03-18T02:31:48.517Z,0.00
2023-03-18T02:32:48.540Z,0.00
2023-03-18T02:33:48.494Z,0.00
2023-03-18T02:34:48.474Z,0.00
2023-03-18T02:35:48.526Z,0.00
2023-03-18T02:36:48.439Z,0.00
2023-03-18T02:37:48.466Z,0.00
2023-03-18T02:38:48.435Z,0.00
2023-03-18T02:39:48.446Z,0.00
2023-03-18T02:40:48.390Z,0.00
2023-03-18T02:41:48.401Z,0.00
2023-03-18T02:42:48.374Z,0.00
2023-03-18T02:43:48.373Z,0.00
2023-03-18T02:44:48.374Z,0.00
2023-03-18T02:45:48.369Z,0.00
2023-03-18T02:46:48.343Z,0.00
2023-03-18T02:47:48.319Z,0.00
2023-03-18T02:48:48.356Z,0.00
2023-03-18T02:49:48.310Z,0.00
2023-03-18T02:50:48.289Z,0.00
2023-03-18T02:51:48.288Z,0.00
2023-03-18T02:52:48.277Z,0.00
2023-03-18T02:53:48.295Z,0.00
2023-03-18T02:54:48.253Z,0.00
2023-03-18T02:55:48.242Z,0.00
2023-03-18T02:56:48.218Z,0.00
2023-03-18T02:57:48.219Z,0.00
2023-03-18T02:58:50.604Z,0.00
2023-03-18T02:59:48.212Z,0.00
2023-03-18T03:00:48.192Z,0.00
2023-03-18T03:01:48.262Z,0.00
2023-03-18T03:02:48.260Z,0.00
2023-03-18T03:03:48.156Z,0.00
2023-03-18T03:04:48.155Z,0.00
2023-03-18T03:05:48.117Z,0.00
2023-03-18T03:06:48.110Z,0.00
2023-03-18T03:07:48.112Z,0.00
2023-03-18T03:08:48.089Z,0.00
2023-03-18T03:09:48.116Z,0.00
2023-03-18T03:10:48.082Z,0.00
2023-03-18T03:11:48.062Z,0.00
2023-03-18T03:12:48.068Z,0.00
2023-03-18T03:13:48.031Z,0.00
2023-03-18T03:14:48.027Z,0.00
2023-03-18T03:15:48.046Z,0.00
2023-03-18T03:16:48.017Z,0.00
2023-03-18T03:17:47.994Z,0.00
2023-03-18T03:18:48.027Z,0.00
2023-03-18T03:19:47.983Z,0.00
2023-03-18T03:20:47.984Z,0.00
2023-03-18T03:21:47.955Z,0.00
2023-03-18T03:22:47.953Z,0.00
2023-03-18T03:23:47.958Z,0.00
2023-03-18T03:24:47.930Z,0.00
2023-03-18T03:25:47.924Z,0.00
2023-03-18T03:26:47.903Z,0.00
2023-03-18T03:27:47.878Z,0.00
2023-03-18T03:28:47.894Z,0.00
2023-03-18T03:29:47.872Z,0.00
2023-03-18T03:30:47.916Z,0.00
2023-03-18T03:31:47.849Z,0.00
2023-03-18T03:32:47.902Z,0.00
2023-03-18T03:33:47.836Z,0.00
2023-03-18T03:34:47.799Z,0.00
2023-03-18T03:35:47.794Z,0.00
2023-03-18T03:36:47.797Z,0.00
2023-03-18T03:37:47.787Z,0.00
2023-03-18T03:38:47.756Z,0.00
2023-03-18T03:39:47.744Z,0.00
2023-03-18T03:40:47.747Z,0.00
2023-03-18T03:41:47.752Z,0.00
2023-03-18T03:42:47.736Z,0.00
2023-03-18T03:43:47.711Z,0.00
2023-03-18T03:44:47.696Z,0.00
2023-03-18T03:45:47.690Z,0.00
2023-03-18T03:46:47.767Z,0.00
2023-03-18T03:47:47.679Z,0.00
2023-03-18T03:48:47.667Z,0.00
2023-03-18T03:49:47.680Z,0.00
2023-03-18T03:50:47.641Z,0.00
2023-03-18T03:51:47.621Z,0.00
2023-03-18T03:52:47.620Z,0.00
2023-03-18T03:53:47.612Z,0.00
2023-03-18T03:54:47.639Z,0.00
2023-03-18T03:55:47.587Z,0.00
2023-03-18T03:56:47.557Z,0.00
2023-03-18T03:57:47.571Z,0.00
2023-03-18T03:58:47.553Z,0.00
2023-03-18T03:59:47.554Z,0.00
2023-03-18T04:00:47.538Z,0.00
2023-03-18T04:01:47.511Z,0.00
2023-03-18T04:02:47.579Z,0.00
2023-03-18T04:03:47.541Z,0.00
2023-03-18T04:04:47.497Z,0.00
2023-03-18T04:05:47.458Z,0.00
2023-03-18T04:06:47.461Z,0.00
2023-03-18T04:07:47.433Z,0.00
2023-03-18T04:08:47.426Z,0.00
2023-03-18T04:09:47.427Z,0.00
2023-03-18T04:10:47.437Z,0.00
2023-03-18T04:11:47.413Z,0.00
2023-03-18T04:12:47.390Z,0.00
2023-03-18T04:13:47.417Z,0.00
2023-03-18T04:14:48.008Z,0.00
2023-03-18T04:15:47.471Z,0.00
2023-03-18T04:16:47.357Z,0.00
2023-03-18T04:17:47.343Z,0.00
2023-03-18T04:18:47.319Z,0.00
2023-03-18T04:19:47.309Z,0.00
2023-03-18T04:20:47.309Z,0.00
2023-03-18T04:21:47.300Z,0.00
2023-03-18T04:22:47.279Z,0.00
2023-03-18T04:23:47.262Z,0.00
2023-03-18T04:24:47.279Z,0.00
2023-03-18T04:25:47.262Z,0.00
2023-03-18T04:26:47.325Z,0.00
2023-03-18T04:27:47.221Z,0.00
2023-03-18T04:28:47.209Z,0.00
2023-03-18T04:29:47.242Z,0.00
2023-03-18T04:30:47.185Z,0.00
2023-03-18T04:31:47.233Z,0.00
2023-03-18T04:32:47.218Z,0.00
2023-03-18T04:33:47.151Z,0.00
2023-03-18T04:34:47.159Z,0.00
2023-03-18T04:35:47.163Z,0.00
2023-03-18T04:36:47.129Z,0.00
2023-03-18T04:37:47.115Z,0.00
2023-03-18T04:38:47.107Z,0.00
2023-03-18T04:39:47.097Z,0.00
2023-03-18T04:40:47.089Z,0.00
2023-03-18T04:41:47.077Z,0.00
2023-03-18T04:42:47.059Z,0.00
2023-03-18T04:43:47.055Z,0.00
2023-03-18T04:44:47.039Z,0.00
2023-03-18T04:45:47.086Z,0.00
2023-03-18T04:46:47.032Z,0.00
2023-03-18T04:47:46.994Z,0.00
2023-03-18T04:48:47.018Z,0.00
2023-03-18T04:49:46.977Z,0.00
2023-03-18T04:50:46.989Z,0.00
2023-03-18T04:51:46.959Z,0.00
2023-03-18T04:52:46.946Z,0.00
2023-03-18T04:53:46.927Z,0.00
2023-03-18T04:54:46.934Z,0.00
2023-03-18T04:55:46.932Z,0.00
2023-03-18T04:56:46.905Z,0.00
2023-03-18T04:57:46.923Z,0.00
2023-03-18T04:58:46.889Z,0.00
2023-03-18T04:59:46.903Z,0.00
2023-03-18T05:00:46.933Z,0.00
2023-03-18T05:01:46.898Z,0.00
2023-03-18T05:02:46.868Z,0.00
2023-03-18T05:03:46.902Z,0.00
2023-03-18T05:04:46.837Z,0.00
2023-03-18T05:05:46.812Z,0.00
2023-03-18T05:06:46.806Z,0.00
2023-03-18T05:07:46.798Z,0.00
2023-03-18T05:08:46.784Z,0.00
2023-03-18T05:09:46.752Z,0.00
2023-03-18T05:10:46.748Z,0.00
2023-03-18T05:11:46.769Z,0.00
2023-03-18T05:12:46.752Z,4.00
2023-03-18T05:13:46.726Z,4.00
2023-03-18T05:14:46.736Z,4.00
2023-03-18T05:15:46.714Z,4.00
2023-03-18T05:16:46.710Z,4.00
2023-03-18T05:17:46.698Z,8.00
2023-03-18T05:18:46.675Z,8.00
2023-03-18T05:19:46.655Z,8.00
2023-03-18T05:20:46.652Z,12.00
2023-03-18T05:21:46.633Z,16.00
2023-03-18T05:22:46.612Z,16.00
2023-03-18T05:23:46.602Z,20.00
2023-03-18T05:24:46.590Z,24.00
2023-03-18T05:25:46.601Z,28.00
2023-03-18T05:26:46.648Z,36.00
2023-03-18T05:27:46.578Z,40.00
2023-03-18T05:28:46.582Z,52.00
2023-03-18T05:29:46.547Z,56.00
2023-03-18T05:30:46.546Z,68.00
2023-03-18T05:31:46.686Z,80.00
2023-03-18T05:32:46.621Z,92.00
2023-03-18T05:33:46.546Z,100.00
2023-03-18T05:34:46.507Z,116.00
2023-03-18T05:35:46.502Z,136.00
2023-03-18T05:36:46.469Z,148.00
2023-03-18T05:37:46.470Z,168.00
2023-03-18T05:38:46.439Z,192.00
2023-03-18T05:39:46.432Z,216.00
2023-03-18T05:40:46.460Z,240.00
2023-03-18T05:41:46.451Z,268.00
2023-03-18T05:42:55.937Z,300.00
2023-03-18T05:43:47.386Z,328.00
2023-03-18T05:44:46.403Z,364.00
2023-03-18T05:45:46.500Z,400.00
2023-03-18T05:46:46.364Z,440.00
2023-03-18T05:47:46.366Z,480.00
2023-03-18T05:48:46.342Z,524.00
2023-03-18T05:49:46.360Z,576.00
2023-03-18T05:50:46.377Z,624.00
2023-03-18T05:51:46.322Z,676.00
2023-03-18T05:52:46.316Z,728.00
2023-03-18T05:53:46.306Z,780.00
2023-03-18T05:54:46.261Z,832.00
2023-03-18T05:55:46.272Z,892.00
2023-03-18T05:56:46.271Z,952.00
2023-03-18T05:57:46.229Z,1012.00
2023-03-18T05:58:46.235Z,1076.00
2023-03-18T05:59:46.216Z,1128.00
2023-03-18T06:00:46.216Z,1188.00
2023-03-18T06:01:46.286Z,1248.00
2023-03-18T06:02:46.244Z,1316.00
2023-03-18T06:03:46.210Z,1376.00
2023-03-18T06:04:46.173Z,1432.00
2023-03-18T06:05:46.192Z,1488.00
2023-03-18T06:06:46.160Z,1556.00
2023-03-18T06:07:46.140Z,1624.00
2023-03-18T06:08:46.137Z,1708.00
2023-03-18T06:09:46.134Z,1800.00
2023-03-18T06:10:46.135Z,1892.00
2023-03-18T06:11:46.114Z,1984.00
2023-03-18T06:12:46.121Z,2048.00
2023-03-18T06:13:46.095Z,2108.00
2023-03-18T06:14:46.053Z,2160.00
2023-03-18T06:15:47.642Z,2216.00
2023-03-18T06:16:46.101Z,2272.00
2023-03-18T06:17:46.072Z,2332.00
2023-03-18T06:18:46.106Z,2388.00
2023-03-18T06:19:45.999Z,2452.00
2023-03-18T06:20:45.985Z,2512.00
2023-03-18T06:21:46.028Z,2580.00
2023-03-18T06:22:46.001Z,2640.00
2023-03-18T06:23:45.985Z,2696.00
2023-03-18T06:24:48.304Z,2744.00
2023-03-18T06:25:46.006Z,2788.00
2023-03-18T06:26:45.976Z,2828.00
2023-03-18T06:27:45.926Z,2860.00
2023-03-18T06:28:45.902Z,2900.00
2023-03-18T06:29:45.920Z,2948.00
2023-03-18T06:30:46.014Z,3012.00
2023-03-18T06:31:45.897Z,3076.00
2023-03-18T06:32:45.906Z,3128.00
2023-03-18T06:33:45.857Z,3172.00
2023-03-18T06:34:45.868Z,3204.00
2023-03-18T06:35:45.870Z,3244.00
2023-03-18T06:36:45.821Z,3280.00
2023-03-18T06:37:45.835Z,3292.00
2023-03-18T06:38:45.833Z,3368.00
2023-03-18T06:39:45.811Z,3408.00
2023-03-18T06:40:45.776Z,3448.00
2023-03-18T06:41:45.784Z,3496.00
2023-03-18T06:42:45.781Z,3544.00
2023-03-18T06:43:45.790Z,3604.00
2023-03-18T06:44:45.746Z,3664.00
2023-03-18T06:45:45.731Z,3724.00
2023-03-18T06:46:45.755Z,3780.00
2023-03-18T06:47:45.716Z,3852.00
2023-03-18T06:48:45.747Z,3928.00
2023-03-18T06:49:45.688Z,3992.00
2023-03-18T06:50:45.684Z,4052.00
2023-03-18T06:51:45.671Z,4124.00
2023-03-18T06:52:45.665Z,4180.00
2023-03-18T06:53:45.653Z,4216.00
2023-03-18T06:54:45.619Z,4260.00
2023-03-18T06:55:45.600Z,4276.00
2023-03-18T06:56:46.377Z,4304.00
2023-03-18T06:57:45.626Z,4328.00
2023-03-18T06:58:45.706Z,4348.00
2023-03-18T06:59:45.653Z,4364.00
2023-03-18T07:00:45.679Z,4388.00
2023-03-18T07:01:45.631Z,4416.00
2023-03-18T07:02:45.533Z,4444.00
2023-03-18T07:03:45.530Z,4468.00
2023-03-18T07:04:45.705Z,4492.00
2023-03-18T07:05:45.496Z,4504.00
2023-03-18T07:06:45.527Z,4508.00
2023-03-18T07:07:45.513Z,4516.00
2023-03-18T07:08:45.480Z,4524.00
2023-03-18T07:09:45.492Z,4536.00
2023-03-18T07:10:45.476Z,4560.00
2023-03-18T07:11:45.440Z,4592.00
2023-03-18T07:12:45.446Z,4628.00
2023-03-18T07:13:45.439Z,4668.00
2023-03-18T07:14:45.407Z,4700.00
2023-03-18T07:15:45.436Z,4748.00
2023-03-18T07:16:45.405Z,4816.00
2023-03-18T07:17:45.385Z,4880.00
2023-03-18T07:18:45.378Z,4960.00
2023-03-18T07:19:45.401Z,5040.00
2023-03-18T07:20:45.359Z,5132.00
2023-03-18T07:21:45.321Z,5212.00
2023-03-18T07:22:45.353Z,5268.00
2023-03-18T07:23:45.325Z,5312.00
2023-03-18T07:24:45.321Z,5328.00
2023-03-18T07:25:45.320Z,5324.00
2023-03-18T07:26:45.291Z,5308.00
2023-03-18T07:27:45.285Z,5284.00
2023-03-18T07:28:45.279Z,5272.00
2023-03-18T07:29:45.253Z,5244.00
2023-03-18T07:30:45.351Z,5232.00
2023-03-18T07:31:45.246Z,5208.00
2023-03-18T07:32:45.215Z,5152.00
2023-03-18T07:33:45.247Z,5140.00
2023-03-18T07:34:45.195Z,5132.00
2023-03-18T07:35:45.243Z,5052.00
2023-03-18T07:36:45.212Z,5180.00
2023-03-18T07:37:45.149Z,5204.00
2023-03-18T07:38:45.141Z,5344.00
2023-03-18T07:39:45.153Z,5412.00
2023-03-18T07:40:45.158Z,5520.00
2023-03-18T07:41:45.159Z,5632.00
2023-03-18T07:42:45.107Z,5700.00
2023-03-18T07:43:45.115Z,5788.00
2023-03-18T07:44:45.111Z,5936.00
2023-03-18T07:45:45.075Z,6072.00
2023-03-18T07:46:45.173Z,6088.00
2023-03-18T07:47:47.090Z,5996.00
2023-03-18T07:48:45.051Z,5912.00
2023-03-18T07:49:45.024Z,6008.00
2023-03-18T07:50:45.008Z,6012.00
2023-03-18T07:51:45.010Z,6008.00
2023-03-18T07:52:44.981Z,5960.00
2023-03-18T07:53:45.090Z,5992.00
2023-03-18T07:54:44.987Z,6048.00
2023-03-18T07:55:45.035Z,6096.00
2023-03-18T07:56:45.007Z,6104.00
2023-03-18T07:57:44.994Z,6256.00
2023-03-18T07:58:44.906Z,6372.00
2023-03-18T07:59:44.931Z,6360.00
2023-03-18T08:00:45.373Z,6492.00
2023-03-18T08:01:44.892Z,6656.00
2023-03-18T08:02:44.876Z,6768.00
2023-03-18T08:03:44.924Z,6800.00
2023-03-18T08:04:44.880Z,6840.00
2023-03-18T08:05:44.861Z,6856.00
2023-03-18T08:06:44.831Z,6916.00
2023-03-18T08:07:44.801Z,6920.00
2023-03-18T08:08:44.881Z,6960.00
2023-03-18T08:09:44.836Z,6984.00
2023-03-18T08:10:44.770Z,6968.00
2023-03-18T08:11:44.767Z,6976.00
2023-03-18T08:12:52.528Z,6956.00
2023-03-18T08:13:45.770Z,6924.00
2023-03-18T08:14:44.774Z,6876.00
2023-03-18T08:15:44.745Z,6784.00
2023-03-18T08:16:44.796Z,6792.00
2023-03-18T08:17:44.709Z,6656.00
2023-03-18T08:18:44.712Z,6516.00
2023-03-18T08:19:44.709Z,6584.00
2023-03-18T08:20:44.708Z,6736.00
2023-03-18T08:21:44.659Z,6840.00
2023-03-18T08:22:44.634Z,6700.00
2023-03-18T08:23:44.664Z,6716.00
2023-03-18T08:24:45.634Z,6748.00
2023-03-18T08:25:44.619Z,6896.00
2023-03-18T08:26:44.602Z,6912.00
2023-03-18T08:27:44.588Z,6692.00
2023-03-18T08:28:44.589Z,6604.00
2023-03-18T08:29:44.591Z,6920.00
2023-03-18T08:30:44.539Z,6976.00
2023-03-18T08:31:44.584Z,6928.00
2023-03-18T08:32:44.691Z,6968.00
2023-03-18T08:33:44.539Z,6956.00
2023-03-18T08:34:44.532Z,7036.00
2023-03-18T08:35:44.511Z,7136.00
2023-03-18T08:36:44.487Z,7180.00
2023-03-18T08:37:44.503Z,7320.00
2023-03-18T08:38:44.501Z,7444.00
2023-03-18T08:39:44.486Z,7548.00
2023-03-18T08:40:44.479Z,7672.00
2023-03-18T08:41:45.844Z,7824.00
2023-03-18T08:42:44.451Z,7972.00
2023-03-18T08:43:44.439Z,8144.00
2023-03-18T08:44:44.407Z,8180.00
2023-03-18T08:45:44.577Z,8280.00
2023-03-18T08:46:44.361Z,8420.00
2023-03-18T08:47:44.385Z,8552.00
2023-03-18T08:48:44.353Z,8760.00
2023-03-18T08:49:44.353Z,8996.00
2023-03-18T08:50:44.345Z,9184.00
2023-03-18T08:51:44.332Z,9312.00
2023-03-18T08:52:44.340Z,9404.00
2023-03-18T08:53:44.340Z,9432.00
2023-03-18T08:54:44.271Z,9456.00
2023-03-18T08:55:44.280Z,9460.00
2023-03-18T08:56:44.312Z,9424.00
2023-03-18T08:57:44.271Z,9536.00
2023-03-18T08:58:44.234Z,9692.00
2023-03-18T08:59:44.237Z,9784.00
2023-03-18T09:00:44.366Z,9908.00
2023-03-18T09:01:44.226Z,10056.00
2023-03-18T09:02:44.211Z,10216.00
2023-03-18T09:03:44.249Z,10320.00
2023-03-18T09:04:44.170Z,10460.00
2023-03-18T09:05:44.167Z,10612.00
2023-03-18T09:06:44.176Z,10672.00
2023-03-18T09:07:44.150Z,10608.00
2023-03-18T09:08:44.206Z,10492.00
2023-03-18T09:09:44.541Z,10564.00
2023-03-18T09:10:44.095Z,10524.00
2023-03-18T09:11:44.113Z,10520.00
2023-03-18T09:12:44.090Z,10528.00
2023-03-18T09:13:44.069Z,10440.00
2023-03-18T09:14:44.336Z,10416.00
2023-03-18T09:15:44.099Z,10348.00
2023-03-18T09:16:44.107Z,10360.00
2023-03-18T09:17:59.979Z,10424.00
2023-03-18T09:18:47.648Z,10472.00
2023-03-18T09:19:44.066Z,10568.00
2023-03-18T09:20:44.029Z,10584.00
2023-03-18T09:21:43.999Z,10608.00
2023-03-18T09:22:43.992Z,10636.00
2023-03-18T09:23:43.963Z,10644.00
2023-03-18T09:24:43.964Z,10672.00
2023-03-18T09:25:43.935Z,10712.00
2023-03-18T09:26:43.936Z,10720.00
2023-03-18T09:27:43.932Z,10612.00
2023-03-18T09:28:43.912Z,10608.00
2023-03-18T09:29:43.884Z,10576.00
2023-03-18T09:30:43.985Z,10528.00
2023-03-18T09:31:43.894Z,10388.00
2023-03-18T09:32:43.881Z,10252.00
2023-03-18T09:33:43.870Z,10180.00
2023-03-18T09:34:43.872Z,10148.00
2023-03-18T09:35:43.867Z,10072.00
2023-03-18T09:36:43.847Z,10036.00
2023-03-18T09:37:43.814Z,9964.00
2023-03-18T09:38:43.809Z,9968.00
2023-03-18T09:39:43.812Z,9892.00
2023-03-18T09:40:43.796Z,9812.00
2023-03-18T09:41:43.791Z,9856.00
2023-03-18T09:42:43.746Z,9832.00
2023-03-18T09:43:43.801Z,9720.00
2023-03-18T09:44:43.767Z,9696.00
2023-03-18T09:45:43.809Z,9688.00
2023-03-18T09:46:43.844Z,9724.00
2023-03-18T09:47:43.682Z,9764.00
2023-03-18T09:48:43.727Z,9836.00
2023-03-18T09:49:43.729Z,9828.00
2023-03-18T09:50:43.669Z,9752.00
2023-03-18T09:51:43.662Z,9776.00
2023-03-18T09:52:43.642Z,9764.00
2023-03-18T09:53:43.637Z,9752.00
2023-03-18T09:54:43.739Z,9696.00
2023-03-18T09:55:43.646Z,9624.00
2023-03-18T09:56:43.604Z,9588.00
2023-03-18T09:57:43.587Z,9528.00
2023-03-18T09:58:43.613Z,9436.00
2023-03-18T09:59:43.598Z,9336.00
2023-03-18T10:00:43.546Z,9208.00
2023-03-18T10:01:43.602Z,8952.00
2023-03-18T10:02:43.520Z,8944.00
2023-03-18T10:03:43.569Z,8820.00
2023-03-18T10:04:43.550Z,8788.00
2023-03-18T10:05:43.539Z,8840.00
2023-03-18T10:06:43.506Z,8836.00
2023-03-18T10:07:43.526Z,8768.00
2023-03-18T10:08:43.488Z,8708.00
2023-03-18T10:09:43.465Z,8636.00
2023-03-18T10:10:43.483Z,8512.00
2023-03-18T10:11:43.415Z,8416.00
2023-03-18T10:12:43.444Z,8268.00
2023-03-18T10:13:43.426Z,8152.00
2023-03-18T10:14:43.399Z,8040.00
2023-03-18T10:15:43.448Z,7912.00
2023-03-18T10:16:43.359Z,7852.00
2023-03-18T10:17:43.390Z,7808.00
2023-03-18T10:18:43.355Z,7824.00
2023-03-18T10:19:43.352Z,7784.00
2023-03-18T10:20:43.335Z,7860.00
2023-03-18T10:21:43.346Z,7964.00
2023-03-18T10:22:43.335Z,8068.00
2023-03-18T10:23:43.323Z,8160.00
2023-03-18T10:24:43.279Z,8252.00
2023-03-18T10:25:43.280Z,8316.00
2023-03-18T10:26:43.297Z,8280.00
2023-03-18T10:27:43.280Z,8268.00
2023-03-18T10:28:43.284Z,8288.00
2023-03-18T10:29:43.219Z,8328.00
2023-03-18T10:30:43.212Z,8392.00
2023-03-18T10:31:43.218Z,8552.00
2023-03-18T10:32:49.820Z,8636.00
2023-03-18T10:33:44.221Z,8596.00
2023-03-18T10:34:43.163Z,8612.00
2023-03-18T10:35:43.194Z,8704.00
2023-03-18T10:36:43.156Z,8648.00
2023-03-18T10:37:43.213Z,8760.00
2023-03-18T10:38:43.143Z,8496.00
2023-03-18T10:39:43.112Z,8364.00
2023-03-18T10:40:43.117Z,8468.00
2023-03-18T10:41:43.110Z,8504.00
2023-03-18T10:42:43.096Z,8484.00
2023-03-18T10:43:43.077Z,8480.00
2023-03-18T10:44:43.123Z,8500.00
2023-03-18T10:45:43.047Z,8492.00
2023-03-18T10:46:43.195Z,8340.00
2023-03-18T10:47:43.050Z,8052.00
2023-03-18T10:48:43.064Z,7888.00
2023-03-18T10:49:43.023Z,7616.00
2023-03-18T10:50:43.026Z,7524.00
2023-03-18T10:51:43.004Z,7664.00
2023-03-18T10:52:42.991Z,7600.00
2023-03-18T10:53:42.991Z,7528.00
2023-03-18T10:54:42.948Z,7440.00
2023-03-18T10:55:42.960Z,7360.00
2023-03-18T10:56:42.954Z,7196.00
2023-03-18T10:57:42.944Z,7200.00
2023-03-18T10:58:42.920Z,7216.00
2023-03-18T10:59:42.900Z,6960.00
2023-03-18T11:00:42.903Z,7032.00
2023-03-18T11:01:42.957Z,6932.00
2023-03-18T11:02:42.894Z,6968.00
2023-03-18T11:03:42.858Z,7100.00
2023-03-18T11:04:42.853Z,7148.00
2023-03-18T11:05:42.848Z,7284.00
2023-03-18T11:06:42.816Z,7496.00
2023-03-18T11:07:42.813Z,7576.00
2023-03-18T11:08:42.802Z,7508.00
2023-03-18T11:09:42.819Z,7668.00
2023-03-18T11:10:42.794Z,7584.00
2023-03-18T11:11:42.790Z,7704.00
2023-03-18T11:12:42.749Z,7408.00
2023-03-18T11:13:42.770Z,7144.00
2023-03-18T11:14:42.733Z,7216.00
2023-03-18T11:15:42.779Z,7656.00
2023-03-18T11:16:42.733Z,8132.00
2023-03-18T11:17:42.695Z,8000.00
2023-03-18T11:18:42.687Z,8500.00
2023-03-18T11:19:42.699Z,8916.00
2023-03-18T11:20:42.709Z,8972.00
2023-03-18T11:21:42.660Z,9292.00
2023-03-18T11:22:42.634Z,9544.00
2023-03-18T11:23:42.619Z,9552.00
2023-03-18T11:24:42.736Z,10108.00
2023-03-18T11:25:42.636Z,9912.00
2023-03-18T11:26:42.607Z,10604.00
2023-03-18T11:27:42.580Z,10536.00
2023-03-18T11:28:42.584Z,10388.00
2023-03-18T11:29:42.884Z,10296.00
2023-03-18T11:30:42.880Z,10204.00
2023-03-18T11:31:42.626Z,9964.00
2023-03-18T11:32:42.574Z,9948.00
2023-03-18T11:33:42.532Z,10148.00
2023-03-18T11:34:42.514Z,10308.00
2023-03-18T11:35:42.566Z,10536.00
2023-03-18T11:36:42.494Z,11036.00
2023-03-18T11:37:42.528Z,11268.00
2023-03-18T11:38:42.481Z,10944.00
2023-03-18T11:39:42.462Z,11204.00
2023-03-18T11:40:42.471Z,11364.00
2023-03-18T11:41:42.453Z,11528.00
2023-03-18T11:42:42.438Z,11804.00
2023-03-18T11:43:42.441Z,11812.00
2023-03-18T11:44:42.402Z,11544.00
2023-03-18T11:45:42.409Z,11152.00
2023-03-18T11:46:42.447Z,10872.00
2023-03-18T11:47:42.362Z,10808.00
2023-03-18T11:48:42.371Z,10728.00
2023-03-18T11:49:42.369Z,10752.00
2023-03-18T11:50:42.339Z,10944.00
2023-03-18T11:51:42.317Z,11152.00
2023-03-18T11:52:42.347Z,11224.00
2023-03-18T11:53:42.321Z,11384.00
2023-03-18T11:54:42.284Z,11624.00
2023-03-18T11:55:42.275Z,11740.00
2023-03-18T11:56:42.253Z,11584.00
2023-03-18T11:57:42.318Z,11472.00
2023-03-18T11:58:42.242Z,11512.00
2023-03-18T11:59:42.233Z,11596.00
2023-03-18T12:00:42.236Z,11664.00
2023-03-18T12:01:42.274Z,11704.00
2023-03-18T12:02:42.225Z,11756.00
2023-03-18T12:03:42.189Z,11884.00
2023-03-18T12:04:42.256Z,12052.00
2023-03-18T12:05:42.172Z,12300.00
2023-03-18T12:06:42.164Z,12440.00
2023-03-18T12:07:42.155Z,12436.00
2023-03-18T12:08:42.179Z,12496.00
2023-03-18T12:09:42.154Z,12620.00
2023-03-18T12:10:42.102Z,13012.00
2023-03-18T12:11:42.115Z,13032.00
2023-03-18T12:12:42.099Z,13152.00
2023-03-18T12:13:42.114Z,13444.00
2023-03-18T12:14:42.074Z,13440.00
2023-03-18T12:15:42.124Z,13696.00
2023-03-18T12:16:42.131Z,13456.00
2023-03-18T12:17:42.053Z,13448.00
2023-03-18T12:18:43.046Z,13424.00
2023-03-18T12:19:42.026Z,13576.00
2023-03-18T12:20:42.032Z,13656.00
2023-03-18T12:21:42.016Z,13584.00
2023-03-18T12:22:41.973Z,13416.00
2023-03-18T12:23:41.993Z,13020.00
2023-03-18T12:24:41.966Z,12984.00
2023-03-18T12:25:41.942Z,12700.00
2023-03-18T12:26:41.946Z,12648.00
2023-03-18T12:27:41.953Z,12672.00
2023-03-18T12:28:41.939Z,12744.00
2023-03-18T12:29:41.928Z,13124.00
2023-03-18T12:30:41.915Z,13296.00
2023-03-18T12:31:41.957Z,13592.00
2023-03-18T12:32:41.979Z,13928.00
2023-03-18T12:33:41.892Z,13952.00